South Kearny, New Jersey
Current Conditions -  °F | °C
As of 7:51 AM on Friday 19 Dec 2014 (Local Time) from KEWR Reporting Station
Overcast Overcast  
Wind Chill: -1°   Ceiling: 3500
Heat Index:   Visibility: 10mi
Dew Point: -5°   Wind: 10mph
Humidity: 57%   Direction: 320°NW
Pressure: 30.03"   Gusts: NA
Location:  40.7563°N, 74.1217°W
Report Text: KEWR 191251Z 32009KT 10SM OVC035 03/M05 A3003 RMK AO2 SLP169 T00281050
Loading
Personal Weather Stations






























Interactive Weather Map New forecast layout! Learn more

10-Day Weather Forecast

Advertisements
Track Severe Weather on mobile